Main page
METAR-TAF:

METAR-TAF

Airports :

Salgado Filho International Airport

Porto Alegre, Rio Grande do Sul, Brazil

latitude: 30-00S, longitude: 051-11W, elevation: 3 m

METAR: missing

Time: 09:58 (12:58 UTC)

Forecast

The report was made 3 hours and 58 minutes ago, at 09:00 UTC
Forecast valid from 17 at 12 UTC to 18 at 12 UTC
Wind 5 kt from the East/Northeast
Visibility 10 km or more
Scattered clouds at a height of 3000 ft
Becoming
from 17 at 14 UTC to 17 at 16 UTC
Wind 8 kt from the West
Becoming
from 17 at 22 UTC to 17 at 24 UTC
Wind 5 kt from the North/Northwest
Becoming
from 18 at 06 UTC to 18 at 08 UTC
Wind 3 kt from the West/Southwest
Visibility: 5000 m
Broken clouds at a height of 500 ft
mist

TAF: SBPA 170900Z 1712/1812 06005KT 9999 SCT030 TX20/1717Z TN11/1806Z BECMG 1714/1716 27008KT BECMG 1722/1724 33005KT BECMG 1806/1808 24003KT 5000 BR BKN005 RMK PEH

Weather observations and forecasts of more than 4000 airports (METAR and TAF reports).

The available stations are represented by yellow and red dots on the map.

Hover mouse over dot to see the name of the station.

Then click to see weather observations and forecasts.

To change the map : click on the green buttons with a black cross to zoom in, on the green button with a dash to zoom out, or on the green arrows for adjacent maps.


METAR-TAF: